Terminal Aerodrome Forecast
Issued by NWS

Home | Current Version | Previous Version | Text Only | Print | Product List | Glossary On
Versions: 1 2 3 4 5 6 7 8 9 10 11 12 13 14 15 16 17
000
FTUS44 KBMX 231530 AAC
TAFTOI
TAF AMD
KTOI 231530Z 2316/2412 09010G15KT P6SM SCT026
     FM240000 08008KT P6SM BKN050
     FM240900 10007KT P6SM BKN025=

USA.gov is the U.S. government's official web portal to all federal, state and local government web resources and services.